sensor_id;sensor_type;location;lat;lon;timestamp;temperature;humidity
11242;DHT22;5678;52.370;9.006;2024-01-30T10:18:04;8.30;8.10
11242;DHT22;5678;52.370;9.006;2024-01-30T10:20:34;8.10;1.00
11242;DHT22;5678;52.370;9.006;2024-01-30T17:16:20;10.00;1.00
11242;DHT22;5678;52.370;9.006;2024-01-30T17:18:48;10.00;1.00
11242;DHT22;5678;52.370;9.006;2024-01-30T17:21:17;10.00;1.00
11242;DHT22;5678;52.370;9.006;2024-01-30T17:23:45;10.00;1.00
11242;DHT22;5678;52.370;9.006;2024-01-30T17:26:13;10.10;1.00
11242;DHT22;5678;52.370;9.006;2024-01-30T17:28:42;10.10;1.00
11242;DHT22;5678;52.370;9.006;2024-01-30T17:31:10;10.10;1.00
11242;DHT22;5678;52.370;9.006;2024-01-30T17:33:40;10.10;99.90
11242;DHT22;5678;52.370;9.006;2024-01-30T17:36:09;10.10;99.90
11242;DHT22;5678;52.370;9.006;2024-01-30T17:38:37;10.10;99.90
11242;DHT22;5678;52.370;9.006;2024-01-30T17:41:05;10.00;1.00
11242;DHT22;5678;52.370;9.006;2024-01-30T17:43:38;10.00;1.00
11242;DHT22;5678;52.370;9.006;2024-01-30T17:46:06;10.00;1.00
11242;DHT22;5678;52.370;9.006;2024-01-30T17:48:35;9.90;1.00
11242;DHT22;5678;52.370;9.006;2024-01-30T17:51:05;9.80;1.00
11242;DHT22;5678;52.370;9.006;2024-01-30T17:53:33;9.80;1.00
11242;DHT22;5678;52.370;9.006;2024-01-30T17:56:01;9.70;1.00
11242;DHT22;5678;52.370;9.006;2024-01-30T17:58:32;9.60;1.00
11242;DHT22;5678;52.370;9.006;2024-01-30T18:01:01;9.60;1.00
11242;DHT22;5678;52.370;9.006;2024-01-30T18:03:30;9.70;1.00
11242;DHT22;5678;52.370;9.006;2024-01-30T18:05:58;9.50;1.00
11242;DHT22;5678;52.370;9.006;2024-01-30T18:08:28;9.40;1.00
11242;DHT22;5678;52.370;9.006;2024-01-30T18:10:56;9.30;1.00
11242;DHT22;5678;52.370;9.006;2024-01-30T18:13:24;9.20;1.00
11242;DHT22;5678;52.370;9.006;2024-01-30T18:15:52;9.10;1.00
11242;DHT22;5678;52.370;9.006;2024-01-30T18:18:21;9.30;1.00
11242;DHT22;5678;52.370;9.006;2024-01-30T18:20:56;9.20;1.00
11242;DHT22;5678;52.370;9.006;2024-01-30T18:23:24;8.90;1.00
11242;DHT22;5678;52.370;9.006;2024-01-30T18:25:53;8.90;1.00
11242;DHT22;5678;52.370;9.006;2024-01-30T18:28:26;8.90;1.00
11242;DHT22;5678;52.370;9.006;2024-01-30T18:30:55;9.00;1.00
11242;DHT22;5678;52.370;9.006;2024-01-30T18:33:23;8.90;1.00
11242;DHT22;5678;52.370;9.006;2024-01-30T18:35:52;8.90;1.00
11242;DHT22;5678;52.370;9.006;2024-01-30T18:38:20;9.00;1.00
11242;DHT22;5678;52.370;9.006;2024-01-30T18:40:48;9.10;1.00
11242;DHT22;5678;52.370;9.006;2024-01-30T18:43:18;8.80;1.00
11242;DHT22;5678;52.370;9.006;2024-01-30T18:45:51;8.80;1.00
11242;DHT22;5678;52.370;9.006;2024-01-30T18:48:20;8.50;1.00
11242;DHT22;5678;52.370;9.006;2024-01-30T18:50:48;8.60;1.00
11242;DHT22;5678;52.370;9.006;2024-01-30T18:53:16;8.50;1.00
11242;DHT22;5678;52.370;9.006;2024-01-30T18:55:44;8.60;1.00
11242;DHT22;5678;52.370;9.006;2024-01-30T18:58:13;8.40;1.00
11242;DHT22;5678;52.370;9.006;2024-01-30T19:00:43;8.40;1.00
11242;DHT22;5678;52.370;9.006;2024-01-30T19:03:14;8.30;1.00
11242;DHT22;5678;52.370;9.006;2024-01-30T19:05:44;8.50;1.00
11242;DHT22;5678;52.370;9.006;2024-01-30T19:08:13;8.20;1.00
11242;DHT22;5678;52.370;9.006;2024-01-30T19:10:43;8.20;1.00
11242;DHT22;5678;52.370;9.006;2024-01-30T19:13:12;8.40;1.00
11242;DHT22;5678;52.370;9.006;2024-01-30T19:15:43;8.40;1.00
11242;DHT22;5678;52.370;9.006;2024-01-30T19:18:11;8.40;1.00
11242;DHT22;5678;52.370;9.006;2024-01-30T19:20:39;8.50;1.00
11242;DHT22;5678;52.370;9.006;2024-01-30T19:23:08;8.50;1.00
11242;DHT22;5678;52.370;9.006;2024-01-30T19:25:36;8.50;1.00
11242;DHT22;5678;52.370;9.006;2024-01-30T19:28:08;8.40;1.00
11242;DHT22;5678;52.370;9.006;2024-01-30T19:30:36;8.40;1.00
11242;DHT22;5678;52.370;9.006;2024-01-30T19:33:05;8.90;1.00
11242;DHT22;5678;52.370;9.006;2024-01-30T19:35:34;8.50;1.00
11242;DHT22;5678;52.370;9.006;2024-01-30T19:38:02;8.40;1.00
11242;DHT22;5678;52.370;9.006;2024-01-30T19:40:30;8.40;1.00
11242;DHT22;5678;52.370;9.006;2024-01-30T19:42:58;8.30;1.00
11242;DHT22;5678;52.370;9.006;2024-01-30T19:45:26;8.30;1.00
11242;DHT22;5678;52.370;9.006;2024-01-30T19:47:54;8.30;1.00
11242;DHT22;5678;52.370;9.006;2024-01-30T19:50:24;8.60;1.00
11242;DHT22;5678;52.370;9.006;2024-01-30T19:52:52;8.40;32.20
11242;DHT22;5678;52.370;9.006;2024-01-30T19:55:20;8.30;45.20
11242;DHT22;5678;52.370;9.006;2024-01-30T19:57:51;8.30;99.90
11242;DHT22;5678;52.370;9.006;2024-01-30T20:00:20;8.30;99.90
11242;DHT22;5678;52.370;9.006;2024-01-30T20:02:48;8.30;99.90
11242;DHT22;5678;52.370;9.006;2024-01-30T20:05:16;8.50;99.90
11242;DHT22;5678;52.370;9.006;2024-01-30T20:07:46;8.30;99.90
11242;DHT22;5678;52.370;9.006;2024-01-30T20:10:14;8.40;1.00
11242;DHT22;5678;52.370;9.006;2024-01-30T20:12:42;8.60;1.00
11242;DHT22;5678;52.370;9.006;2024-01-30T20:15:10;7.80;1.00
11242;DHT22;5678;52.370;9.006;2024-01-30T20:17:42;8.40;1.00
11242;DHT22;5678;52.370;9.006;2024-01-30T20:20:11;8.50;1.00
11242;DHT22;5678;52.370;9.006;2024-01-30T20:22:43;8.40;1.00
11242;DHT22;5678;52.370;9.006;2024-01-30T20:25:13;8.40;1.00
11242;DHT22;5678;52.370;9.006;2024-01-30T20:27:46;8.40;1.00
11242;DHT22;5678;52.370;9.006;2024-01-30T20:30:14;8.30;1.00
11242;DHT22;5678;52.370;9.006;2024-01-30T20:32:43;8.40;1.00
11242;DHT22;5678;52.370;9.006;2024-01-30T20:35:11;8.50;1.00
11242;DHT22;5678;52.370;9.006;2024-01-30T20:37:40;8.30;1.00
11242;DHT22;5678;52.370;9.006;2024-01-30T20:40:08;8.30;99.90
11242;DHT22;5678;52.370;9.006;2024-01-30T20:42:38;8.30;80.10
11242;DHT22;5678;52.370;9.006;2024-01-30T20:45:07;8.30;1.00
11242;DHT22;5678;52.370;9.006;2024-01-30T20:47:36;8.30;95.00
11242;DHT22;5678;52.370;9.006;2024-01-30T20:50:04;8.30;99.90
11242;DHT22;5678;52.370;9.006;2024-01-30T20:52:33;8.20;1.00
11242;DHT22;5678;52.370;9.006;2024-01-30T20:55:01;8.20;1.00
11242;DHT22;5678;52.370;9.006;2024-01-30T20:57:30;8.10;29.10
11242;DHT22;5678;52.370;9.006;2024-01-30T20:59:59;8.10;1.00
11242;DHT22;5678;52.370;9.006;2024-01-30T21:02:27;7.90;1.00
11242;DHT22;5678;52.370;9.006;2024-01-30T21:04:55;8.20;1.00
11242;DHT22;5678;52.370;9.006;2024-01-30T21:07:23;8.00;1.00
11242;DHT22;5678;52.370;9.006;2024-01-30T21:09:51;8.10;1.00
11242;DHT22;5678;52.370;9.006;2024-01-30T21:12:19;8.00;1.00
11242;DHT22;5678;52.370;9.006;2024-01-30T21:14:47;7.80;1.00
11242;DHT22;5678;52.370;9.006;2024-01-30T21:17:19;7.90;1.00
11242;DHT22;5678;52.370;9.006;2024-01-30T21:19:47;7.90;1.00
11242;DHT22;5678;52.370;9.006;2024-01-30T21:22:15;7.90;1.00
11242;DHT22;5678;52.370;9.006;2024-01-30T21:24:43;7.90;1.00
11242;DHT22;5678;52.370;9.006;2024-01-30T21:27:12;7.80;1.00
11242;DHT22;5678;52.370;9.006;2024-01-30T21:29:40;7.80;99.90
11242;DHT22;5678;52.370;9.006;2024-01-30T21:32:10;7.80;1.00
11242;DHT22;5678;52.370;9.006;2024-01-30T21:34:40;7.90;1.00
11242;DHT22;5678;52.370;9.006;2024-01-30T21:37:08;7.70;1.00
11242;DHT22;5678;52.370;9.006;2024-01-30T21:39:36;7.80;1.00
11242;DHT22;5678;52.370;9.006;2024-01-30T21:42:06;7.80;1.00
11242;DHT22;5678;52.370;9.006;2024-01-30T21:44:34;7.40;1.00
11242;DHT22;5678;52.370;9.006;2024-01-30T21:47:03;7.50;1.00
11242;DHT22;5678;52.370;9.006;2024-01-30T21:49:31;7.50;1.00
11242;DHT22;5678;52.370;9.006;2024-01-30T21:52:00;7.70;1.00
11242;DHT22;5678;52.370;9.006;2024-01-30T21:54:32;7.40;1.00
11242;DHT22;5678;52.370;9.006;2024-01-30T21:57:00;7.30;1.00
11242;DHT22;5678;52.370;9.006;2024-01-30T21:59:28;7.50;1.00
11242;DHT22;5678;52.370;9.006;2024-01-30T22:01:57;7.60;1.00
11242;DHT22;5678;52.370;9.006;2024-01-30T22:04:26;7.60;1.00
11242;DHT22;5678;52.370;9.006;2024-01-30T22:06:54;7.20;1.00
11242;DHT22;5678;52.370;9.006;2024-01-30T22:09:23;7.50;1.00
11242;DHT22;5678;52.370;9.006;2024-01-30T22:11:51;7.30;1.00
11242;DHT22;5678;52.370;9.006;2024-01-30T22:14:19;7.10;1.00
11242;DHT22;5678;52.370;9.006;2024-01-30T22:16:48;7.10;1.00
11242;DHT22;5678;52.370;9.006;2024-01-30T22:19:17;7.00;1.00
11242;DHT22;5678;52.370;9.006;2024-01-30T22:21:45;7.10;1.00
11242;DHT22;5678;52.370;9.006;2024-01-30T22:24:13;6.90;1.00
11242;DHT22;5678;52.370;9.006;2024-01-30T22:26:42;6.90;1.00
11242;DHT22;5678;52.370;9.006;2024-01-30T22:29:10;7.10;1.00
11242;DHT22;5678;52.370;9.006;2024-01-30T22:31:38;6.80;1.00
11242;DHT22;5678;52.370;9.006;2024-01-30T22:34:07;7.10;1.00
11242;DHT22;5678;52.370;9.006;2024-01-30T22:36:35;6.90;1.00
11242;DHT22;5678;52.370;9.006;2024-01-30T22:39:03;6.80;1.00
11242;DHT22;5678;52.370;9.006;2024-01-30T22:41:32;6.80;1.00
11242;DHT22;5678;52.370;9.006;2024-01-30T22:44:02;6.80;1.00
11242;DHT22;5678;52.370;9.006;2024-01-30T22:46:30;6.80;1.00
11242;DHT22;5678;52.370;9.006;2024-01-30T22:48:58;6.90;1.00
11242;DHT22;5678;52.370;9.006;2024-01-30T22:51:27;6.80;1.00
11242;DHT22;5678;52.370;9.006;2024-01-30T22:53:55;6.80;1.00
11242;DHT22;5678;52.370;9.006;2024-01-30T22:56:23;6.70;1.00
11242;DHT22;5678;52.370;9.006;2024-01-30T22:58:51;6.70;1.00
11242;DHT22;5678;52.370;9.006;2024-01-30T23:01:21;6.90;1.00
11242;DHT22;5678;52.370;9.006;2024-01-30T23:03:49;6.70;1.00
11242;DHT22;5678;52.370;9.006;2024-01-30T23:06:17;7.00;1.00
11242;DHT22;5678;52.370;9.006;2024-01-30T23:08:46;7.00;1.00
11242;DHT22;5678;52.370;9.006;2024-01-30T23:11:14;6.70;1.00
11242;DHT22;5678;52.370;9.006;2024-01-30T23:13:42;6.70;1.00
11242;DHT22;5678;52.370;9.006;2024-01-30T23:16:10;6.70;1.00
11242;DHT22;5678;52.370;9.006;2024-01-30T23:18:39;6.90;1.00
11242;DHT22;5678;52.370;9.006;2024-01-30T23:21:08;6.50;1.00
11242;DHT22;5678;52.370;9.006;2024-01-30T23:23:36;6.90;1.00
11242;DHT22;5678;52.370;9.006;2024-01-30T23:26:04;6.70;1.00
11242;DHT22;5678;52.370;9.006;2024-01-30T23:28:32;6.60;1.00
11242;DHT22;5678;52.370;9.006;2024-01-30T23:31:00;7.00;1.00
11242;DHT22;5678;52.370;9.006;2024-01-30T23:33:28;6.60;1.00
11242;DHT22;5678;52.370;9.006;2024-01-30T23:35:57;6.60;1.00
11242;DHT22;5678;52.370;9.006;2024-01-30T23:38:26;6.70;1.00
11242;DHT22;5678;52.370;9.006;2024-01-30T23:40:54;6.60;1.00
11242;DHT22;5678;52.370;9.006;2024-01-30T23:43:23;6.60;1.00
11242;DHT22;5678;52.370;9.006;2024-01-30T23:45:55;6.60;1.00
11242;DHT22;5678;52.370;9.006;2024-01-30T23:48:24;6.60;1.00
11242;DHT22;5678;52.370;9.006;2024-01-30T23:50:52;6.50;1.00
11242;DHT22;5678;52.370;9.006;2024-01-30T23:53:21;6.60;1.00
11242;DHT22;5678;52.370;9.006;2024-01-30T23:55:49;6.60;1.00
11242;DHT22;5678;52.370;9.006;2024-01-30T23:58:18;6.50;1.00
